sensor_id;sensor_type;location;lat;lon;timestamp;pressure;altitude;pressure_sealevel;temperature;humidity
62864;BME280;48954;59.950;11.014;2023-10-13T00:00:05;98709.47;;;6.51;49.72
62864;BME280;48954;59.950;11.014;2023-10-13T00:03:27;98712.44;;;6.43;49.90
62864;BME280;48954;59.950;11.014;2023-10-13T00:06:11;98708.48;;;6.34;50.12
62864;BME280;48954;59.950;11.014;2023-10-13T00:08:55;98702.53;;;6.33;50.15
62864;BME280;48954;59.950;11.014;2023-10-13T00:14:27;98695.64;;;6.26;50.48
62864;BME280;48954;59.950;11.014;2023-10-13T00:17:12;98687.98;;;6.22;50.38
62864;BME280;48954;59.950;11.014;2023-10-13T00:19:53;98684.82;;;6.19;50.57
62864;BME280;48954;59.950;11.014;2023-10-13T00:22:37;98689.96;;;6.19;50.60
62864;BME280;48954;59.950;11.014;2023-10-13T00:25:40;98690.58;;;6.19;50.85
62864;BME280;48954;59.950;11.014;2023-10-13T00:28:11;98696.05;;;6.17;51.24
62864;BME280;48954;59.950;11.014;2023-10-13T00:30:54;98697.95;;;6.14;51.29
62864;BME280;48954;59.950;11.014;2023-10-13T00:33:44;98695.19;;;6.09;51.73
62864;BME280;48954;59.950;11.014;2023-10-13T00:36:29;98694.86;;;6.02;52.06
62864;BME280;48954;59.950;11.014;2023-10-13T00:39:26;98698.27;;;5.91;51.87
62864;BME280;48954;59.950;11.014;2023-10-13T00:42:07;98701.89;;;5.83;51.90
62864;BME280;48954;59.950;11.014;2023-10-13T00:45:09;98701.56;;;5.77;52.03
62864;BME280;48954;59.950;11.014;2023-10-13T00:47:52;98688.10;;;5.68;52.34
62864;BME280;48954;59.950;11.014;2023-10-13T00:50:33;98681.83;;;5.66;52.57
62864;BME280;48954;59.950;11.014;2023-10-13T00:53:18;98675.16;;;5.62;52.71
62864;BME280;48954;59.950;11.014;2023-10-13T00:56:01;98675.74;;;5.56;52.45
62864;BME280;48954;59.950;11.014;2023-10-13T00:59:01;98678.41;;;5.51;52.78
62864;BME280;48954;59.950;11.014;2023-10-13T01:01:44;98685.71;;;5.44;52.97
62864;BME280;48954;59.950;11.014;2023-10-13T01:04:27;98691.59;;;5.36;53.12
62864;BME280;48954;59.950;11.014;2023-10-13T01:07:08;98694.72;;;5.31;53.38
62864;BME280;48954;59.950;11.014;2023-10-13T01:09:51;98683.44;;;5.28;53.50
62864;BME280;48954;59.950;11.014;2023-10-13T01:12:46;98679.83;;;5.25;53.52
62864;BME280;48954;59.950;11.014;2023-10-13T01:15:47;98694.27;;;5.20;53.65
62864;BME280;48954;59.950;11.014;2023-10-13T01:18:29;98702.03;;;5.16;53.78
62864;BME280;48954;59.950;11.014;2023-10-13T01:21:17;98700.68;;;5.09;54.17
62864;BME280;48954;59.950;11.014;2023-10-13T01:24:05;98696.17;;;5.06;54.07
62864;BME280;48954;59.950;11.014;2023-10-13T01:26:47;98699.77;;;5.03;54.54
62864;BME280;48954;59.950;11.014;2023-10-13T01:29:30;98704.52;;;5.00;54.63
62864;BME280;48954;59.950;11.014;2023-10-13T01:32:12;98702.73;;;4.95;54.87
62864;BME280;48954;59.950;11.014;2023-10-13T01:34:48;98693.94;;;4.93;54.92
62864;BME280;48954;59.950;11.014;2023-10-13T01:37:29;98691.04;;;4.91;54.77
62864;BME280;48954;59.950;11.014;2023-10-13T01:40:11;98682.56;;;4.89;55.12
62864;BME280;48954;59.950;11.014;2023-10-13T01:43:06;98677.50;;;4.89;55.04
62864;BME280;48954;59.950;11.014;2023-10-13T01:45:47;98663.98;;;4.84;55.26
62864;BME280;48954;59.950;11.014;2023-10-13T01:48:29;98669.83;;;4.90;55.37
62864;BME280;48954;59.950;11.014;2023-10-13T01:51:10;98659.09;;;4.91;55.72
62864;BME280;48954;59.950;11.014;2023-10-13T01:53:52;98657.38;;;4.88;55.90
62864;BME280;48954;59.950;11.014;2023-10-13T01:56:38;98674.46;;;4.89;55.65
62864;BME280;48954;59.950;11.014;2023-10-13T01:59:28;98678.10;;;4.86;56.03
62864;BME280;48954;59.950;11.014;2023-10-13T02:02:11;98675.70;;;4.84;56.21
62864;BME280;48954;59.950;11.014;2023-10-13T02:04:57;98673.55;;;4.82;56.31
62864;BME280;48954;59.950;11.014;2023-10-13T02:07:37;98682.87;;;4.78;56.43
62864;BME280;48954;59.950;11.014;2023-10-13T02:10:11;98692.17;;;4.75;56.33
62864;BME280;48954;59.950;11.014;2023-10-13T02:12:52;98688.55;;;4.70;56.62
62864;BME280;48954;59.950;11.014;2023-10-13T02:15:33;98680.52;;;4.66;56.91
62864;BME280;48954;59.950;11.014;2023-10-13T02:18:18;98679.74;;;4.61;56.88
62864;BME280;48954;59.950;11.014;2023-10-13T02:21:05;98679.89;;;4.56;57.33
62864;BME280;48954;59.950;11.014;2023-10-13T02:23:45;98677.83;;;4.51;57.44
62864;BME280;48954;59.950;11.014;2023-10-13T02:26:27;98674.17;;;4.49;57.68
62864;BME280;48954;59.950;11.014;2023-10-13T02:29:08;98660.88;;;4.47;57.64
62864;BME280;48954;59.950;11.014;2023-10-13T02:31:49;98655.69;;;4.45;57.66
62864;BME280;48954;59.950;11.014;2023-10-13T02:34:32;98660.31;;;4.44;57.89
62864;BME280;48954;59.950;11.014;2023-10-13T02:37:13;98655.92;;;4.44;57.82
62864;BME280;48954;59.950;11.014;2023-10-13T02:39:46;98650.61;;;4.46;57.97
62864;BME280;48954;59.950;11.014;2023-10-13T02:42:27;98641.13;;;4.47;58.05
62864;BME280;48954;59.950;11.014;2023-10-13T02:45:09;98635.42;;;4.49;58.22
62864;BME280;48954;59.950;11.014;2023-10-13T02:47:51;98630.51;;;4.48;58.20
62864;BME280;48954;59.950;11.014;2023-10-13T02:50:57;98620.61;;;4.47;58.56
62864;BME280;48954;59.950;11.014;2023-10-13T02:53:55;98629.05;;;4.46;58.44
62864;BME280;48954;59.950;11.014;2023-10-13T02:56:57;98624.04;;;4.45;58.48
62864;BME280;48954;59.950;11.014;2023-10-13T02:59:47;98618.87;;;4.44;58.61
62864;BME280;48954;59.950;11.014;2023-10-13T03:02:29;98619.39;;;4.43;58.73
62864;BME280;48954;59.950;11.014;2023-10-13T03:05:18;98619.20;;;4.42;59.01
62864;BME280;48954;59.950;11.014;2023-10-13T03:08:18;98622.70;;;4.42;58.97
62864;BME280;48954;59.950;11.014;2023-10-13T03:11:08;98622.34;;;4.43;58.92
62864;BME280;48954;59.950;11.014;2023-10-13T03:21:29;98595.09;;;4.47;59.36
62864;BME280;48954;59.950;11.014;2023-10-13T03:24:30;98596.31;;;4.49;59.75
62864;BME280;48954;59.950;11.014;2023-10-13T03:27:18;98584.42;;;4.47;59.59
62864;BME280;48954;59.950;11.014;2023-10-13T03:30:01;98585.95;;;4.43;60.28
62864;BME280;48954;59.950;11.014;2023-10-13T03:33:14;98589.30;;;4.40;60.05
62864;BME280;48954;59.950;11.014;2023-10-13T03:36:00;98576.34;;;4.31;60.46
62864;BME280;48954;59.950;11.014;2023-10-13T03:38:43;98574.23;;;4.29;60.99
62864;BME280;48954;59.950;11.014;2023-10-13T03:41:31;98566.95;;;4.25;60.72
62864;BME280;48954;59.950;11.014;2023-10-13T03:44:20;98569.46;;;4.21;61.11
62864;BME280;48954;59.950;11.014;2023-10-13T03:47:04;98570.25;;;4.16;61.23
62864;BME280;48954;59.950;11.014;2023-10-13T03:50:01;98560.35;;;4.12;61.49
62864;BME280;48954;59.950;11.014;2023-10-13T03:52:45;98556.36;;;4.06;61.32
62864;BME280;48954;59.950;11.014;2023-10-13T03:55:28;98547.55;;;4.02;61.51
62864;BME280;48954;59.950;11.014;2023-10-13T04:04:07;98526.90;;;3.95;62.16
62864;BME280;48954;59.950;11.014;2023-10-13T04:07:10;98524.82;;;3.93;62.06
62864;BME280;48954;59.950;11.014;2023-10-13T04:10:38;98527.79;;;3.91;62.31
62864;BME280;48954;59.950;11.014;2023-10-13T04:27:57;98522.86;;;3.76;63.00
62864;BME280;48954;59.950;11.014;2023-10-13T04:34:46;98513.92;;;3.82;63.24
62864;BME280;48954;59.950;11.014;2023-10-13T04:38:26;98502.30;;;3.88;63.16
62864;BME280;48954;59.950;11.014;2023-10-13T04:42:08;98501.77;;;3.88;63.20
62864;BME280;48954;59.950;11.014;2023-10-13T04:52:34;98481.61;;;4.01;63.59
62864;BME280;48954;59.950;11.014;2023-10-13T05:05:12;98478.24;;;4.06;63.65
62864;BME280;48954;59.950;11.014;2023-10-13T05:08:12;98469.90;;;4.08;63.81
62864;BME280;48954;59.950;11.014;2023-10-13T05:11:27;98466.78;;;4.11;63.95
62864;BME280;48954;59.950;11.014;2023-10-13T05:14:08;98465.17;;;4.11;64.01
62864;BME280;48954;59.950;11.014;2023-10-13T05:17:14;98459.55;;;4.10;64.00
62864;BME280;48954;59.950;11.014;2023-10-13T05:20:03;98452.23;;;4.13;64.04
62864;BME280;48954;59.950;11.014;2023-10-13T05:23:03;98443.56;;;4.14;64.07
62864;BME280;48954;59.950;11.014;2023-10-13T05:25:44;98444.98;;;4.15;64.29
62864;BME280;48954;59.950;11.014;2023-10-13T05:28:46;98449.09;;;4.18;64.35
62864;BME280;48954;59.950;11.014;2023-10-13T05:31:32;98438.54;;;4.21;64.42
62864;BME280;48954;59.950;11.014;2023-10-13T05:34:12;98430.75;;;4.24;64.79
62864;BME280;48954;59.950;11.014;2023-10-13T05:36:53;98425.23;;;4.26;64.84
62864;BME280;48954;59.950;11.014;2023-10-13T05:39:25;98418.81;;;4.28;65.02
62864;BME280;48954;59.950;11.014;2023-10-13T05:42:18;98417.59;;;4.30;65.38
62864;BME280;48954;59.950;11.014;2023-10-13T05:45:22;98414.31;;;4.32;65.47
62864;BME280;48954;59.950;11.014;2023-10-13T05:51:09;98404.89;;;4.35;65.95
62864;BME280;48954;59.950;11.014;2023-10-13T05:57:11;98391.23;;;4.36;66.26
62864;BME280;48954;59.950;11.014;2023-10-13T06:00:13;98376.45;;;4.32;66.31
62864;BME280;48954;59.950;11.014;2023-10-13T06:03:21;98388.79;;;4.37;66.28
62864;BME280;48954;59.950;11.014;2023-10-13T06:06:27;98395.61;;;4.36;65.94
62864;BME280;48954;59.950;11.014;2023-10-13T06:28:45;98395.40;;;4.47;67.37
62864;BME280;48954;59.950;11.014;2023-10-13T06:32:06;98388.26;;;4.51;67.27
62864;BME280;48954;59.950;11.014;2023-10-13T06:35:08;98375.77;;;4.56;67.22
62864;BME280;48954;59.950;11.014;2023-10-13T06:38:11;98371.48;;;4.59;67.68
62864;BME280;48954;59.950;11.014;2023-10-13T06:41:17;98366.33;;;4.64;67.39
62864;BME280;48954;59.950;11.014;2023-10-13T06:44:20;98356.13;;;4.65;67.53
62864;BME280;48954;59.950;11.014;2023-10-13T06:47:04;98354.52;;;4.72;67.83
62864;BME280;48954;59.950;11.014;2023-10-13T06:49:58;98354.34;;;4.74;67.37
62864;BME280;48954;59.950;11.014;2023-10-13T06:53:01;98353.97;;;4.78;67.80
62864;BME280;48954;59.950;11.014;2023-10-13T06:55:45;98349.28;;;4.81;67.72
62864;BME280;48954;59.950;11.014;2023-10-13T07:01:37;98341.90;;;4.88;68.05
62864;BME280;48954;59.950;11.014;2023-10-13T07:04:19;98349.16;;;4.93;68.16
62864;BME280;48954;59.950;11.014;2023-10-13T07:07:39;98350.38;;;5.02;68.56
62864;BME280;48954;59.950;11.014;2023-10-13T07:10:28;98345.90;;;5.09;68.40
62864;BME280;48954;59.950;11.014;2023-10-13T07:13:12;98338.19;;;5.11;68.45
62864;BME280;48954;59.950;11.014;2023-10-13T07:15:56;98328.26;;;5.16;68.39
62864;BME280;48954;59.950;11.014;2023-10-13T07:18:43;98319.36;;;5.19;68.55
62864;BME280;48954;59.950;11.014;2023-10-13T07:21:36;98325.48;;;5.22;68.64
62864;BME280;48954;59.950;11.014;2023-10-13T07:24:19;98324.13;;;5.25;68.55
62864;BME280;48954;59.950;11.014;2023-10-13T07:27:21;98319.77;;;5.27;69.09
62864;BME280;48954;59.950;11.014;2023-10-13T07:30:05;98322.98;;;5.29;69.24
62864;BME280;48954;59.950;11.014;2023-10-13T07:33:42;98311.55;;;5.30;69.35
62864;BME280;48954;59.950;11.014;2023-10-13T07:54:30;98263.33;;;5.72;70.87
62864;BME280;48954;59.950;11.014;2023-10-13T07:58:06;98251.46;;;5.88;71.76
62864;BME280;48954;59.950;11.014;2023-10-13T08:05:08;98235.15;;;6.37;72.44
62864;BME280;48954;59.950;11.014;2023-10-13T08:15:27;98206.79;;;6.94;72.36
62864;BME280;48954;59.950;11.014;2023-10-13T08:18:20;98202.02;;;7.07;72.16
62864;BME280;48954;59.950;11.014;2023-10-13T08:21:05;98198.02;;;7.20;72.29
62864;BME280;48954;59.950;11.014;2023-10-13T08:23:53;98197.81;;;7.30;72.06
62864;BME280;48954;59.950;11.014;2023-10-13T08:43:48;98181.23;;;7.79;71.48
62864;BME280;48954;59.950;11.014;2023-10-13T08:49:47;98169.94;;;7.84;71.53
62864;BME280;48954;59.950;11.014;2023-10-13T08:52:34;98159.85;;;7.85;71.64
62864;BME280;48954;59.950;11.014;2023-10-13T15:24:27;97024.88;;;8.01;81.09
62864;BME280;48954;59.950;11.014;2023-10-13T15:27:20;97016.12;;;8.00;81.00
62864;BME280;48954;59.950;11.014;2023-10-13T15:33:15;97002.98;;;7.99;81.08
62864;BME280;48954;59.950;11.014;2023-10-13T15:53:05;96938.61;;;7.93;81.71
62864;BME280;48954;59.950;11.014;2023-10-13T15:56:07;96926.89;;;7.93;82.00
62864;BME280;48954;59.950;11.014;2023-10-13T15:59:11;96915.50;;;7.92;81.96
62864;BME280;48954;59.950;11.014;2023-10-13T16:02:22;96898.41;;;7.89;82.02
62864;BME280;48954;59.950;11.014;2023-10-13T16:05:32;96887.79;;;7.89;82.01
62864;BME280;48954;59.950;11.014;2023-10-13T16:22:55;96816.05;;;7.75;82.59
62864;BME280;48954;59.950;11.014;2023-10-13T16:25:41;96812.16;;;7.72;82.57
62864;BME280;48954;59.950;11.014;2023-10-13T16:28:25;96799.62;;;7.70;82.75
62864;BME280;48954;59.950;11.014;2023-10-13T16:31:09;96787.94;;;7.66;82.73
62864;BME280;48954;59.950;11.014;2023-10-13T16:33:50;96775.17;;;7.64;82.88
62864;BME280;48954;59.950;11.014;2023-10-13T16:45:00;96730.13;;;7.53;83.49
62864;BME280;48954;59.950;11.014;2023-10-13T16:54:10;96710.10;;;7.50;83.87
62864;BME280;48954;59.950;11.014;2023-10-13T17:13:51;96699.19;;;7.53;84.53
62864;BME280;48954;59.950;11.014;2023-10-13T17:16:32;96687.27;;;7.55;84.64
62864;BME280;48954;59.950;11.014;2023-10-13T17:33:41;96655.06;;;7.64;84.86
62864;BME280;48954;59.950;11.014;2023-10-13T17:37:14;96646.05;;;7.65;85.00
62864;BME280;48954;59.950;11.014;2023-10-13T17:40:23;96638.34;;;7.67;85.01
62864;BME280;48954;59.950;11.014;2023-10-13T17:46:10;96623.52;;;7.70;84.93
62864;BME280;48954;59.950;11.014;2023-10-13T17:48:54;96613.50;;;7.71;84.97
62864;BME280;48954;59.950;11.014;2023-10-13T17:51:27;96606.69;;;7.72;84.86
62864;BME280;48954;59.950;11.014;2023-10-13T17:54:12;96595.34;;;7.73;84.91
62864;BME280;48954;59.950;11.014;2023-10-13T17:56:58;96592.02;;;7.71;84.96
62864;BME280;48954;59.950;11.014;2023-10-13T17:59:39;96586.14;;;7.72;85.22
62864;BME280;48954;59.950;11.014;2023-10-13T18:14:11;96557.33;;;7.75;85.40
62864;BME280;48954;59.950;11.014;2023-10-13T18:34:00;96549.42;;;7.83;85.34
62864;BME280;48954;59.950;11.014;2023-10-13T18:37:02;96550.99;;;7.83;85.21
62864;BME280;48954;59.950;11.014;2023-10-13T18:40:20;96540.11;;;7.84;85.31
62864;BME280;48954;59.950;11.014;2023-10-13T18:52:21;96501.78;;;7.85;85.47
62864;BME280;48954;59.950;11.014;2023-10-13T18:55:34;96498.26;;;7.86;85.50
62864;BME280;48954;59.950;11.014;2023-10-13T19:32:27;96450.64;;;7.99;85.57
62864;BME280;48954;59.950;11.014;2023-10-13T19:38:21;96434.56;;;8.01;85.62
62864;BME280;48954;59.950;11.014;2023-10-13T19:41:41;96426.64;;;8.02;85.66
62864;BME280;48954;59.950;11.014;2023-10-13T19:47:20;96424.23;;;8.02;85.79
62864;BME280;48954;59.950;11.014;2023-10-13T19:50:21;96423.80;;;8.03;85.79
62864;BME280;48954;59.950;11.014;2023-10-13T19:53:08;96420.36;;;8.04;85.86
62864;BME280;48954;59.950;11.014;2023-10-13T19:55:51;96422.47;;;8.04;85.71
62864;BME280;48954;59.950;11.014;2023-10-13T19:58:55;96423.11;;;8.03;85.97
62864;BME280;48954;59.950;11.014;2023-10-13T20:02:04;96415.77;;;8.02;85.81
62864;BME280;48954;59.950;11.014;2023-10-13T20:16:06;96416.95;;;7.98;86.25
62864;BME280;48954;59.950;11.014;2023-10-13T20:24:50;96422.34;;;7.86;86.66
62864;BME280;48954;59.950;11.014;2023-10-13T20:27:32;96413.84;;;7.85;86.70
62864;BME280;48954;59.950;11.014;2023-10-13T20:50:38;96405.95;;;7.90;87.49
62864;BME280;48954;59.950;11.014;2023-10-13T20:53:22;96380.48;;;7.89;87.45
62864;BME280;48954;59.950;11.014;2023-10-13T20:56:10;96388.16;;;7.94;87.45
62864;BME280;48954;59.950;11.014;2023-10-13T21:46:59;96382.16;;;8.30;88.37
62864;BME280;48954;59.950;11.014;2023-10-13T22:03:50;96367.80;;;8.25;87.91
62864;BME280;48954;59.950;11.014;2023-10-13T22:38:57;96379.02;;;7.87;87.38
62864;BME280;48954;59.950;11.014;2023-10-13T23:06:59;96365.68;;;7.71;86.97
62864;BME280;48954;59.950;11.014;2023-10-13T23:10:05;96373.54;;;7.69;87.12
62864;BME280;48954;59.950;11.014;2023-10-13T23:13:25;96376.20;;;7.65;87.00
62864;BME280;48954;59.950;11.014;2023-10-13T23:19:09;96372.47;;;7.60;86.91
62864;BME280;48954;59.950;11.014;2023-10-13T23:21:50;96375.85;;;7.58;86.64
62864;BME280;48954;59.950;11.014;2023-10-13T23:36:50;96357.26;;;7.42;85.73
62864;BME280;48954;59.950;11.014;2023-10-13T23:39:23;96362.13;;;7.38;85.91
62864;BME280;48954;59.950;11.014;2023-10-13T23:59:37;96363.40;;;7.12;85.78
